createdAt,value
2018-09-18T00:00:05.430Z,59.15
2018-09-18T00:02:33.658Z,59.06
2018-09-18T00:05:02.349Z,59.25
2018-09-18T00:07:30.719Z,59.20
2018-09-18T00:09:58.946Z,60.88
2018-09-18T00:12:27.176Z,60.00
2018-09-18T00:14:55.418Z,61.44
2018-09-18T00:17:23.635Z,60.40
2018-09-18T00:19:51.853Z,60.28
2018-09-18T00:22:20.103Z,60.10
2018-09-18T00:24:48.339Z,60.44
2018-09-18T00:27:16.553Z,60.34
2018-09-18T00:29:44.769Z,61.09
2018-09-18T00:32:12.994Z,61.34
2018-09-18T00:34:41.222Z,61.10
2018-09-18T00:37:09.456Z,60.90
2018-09-18T00:39:37.710Z,60.57
2018-09-18T00:42:05.956Z,61.53
2018-09-18T00:44:34.198Z,61.19
2018-09-18T00:47:02.423Z,62.21
2018-09-18T00:49:30.666Z,61.60
2018-09-18T00:51:58.892Z,62.63
2018-09-18T00:54:27.105Z,61.94
2018-09-18T00:56:55.377Z,62.47
2018-09-18T00:59:23.593Z,62.07
2018-09-18T01:01:52.597Z,62.63
2018-09-18T01:04:20.910Z,62.68
2018-09-18T01:06:49.169Z,63.24
2018-09-18T01:09:17.382Z,62.67
2018-09-18T01:11:45.613Z,62.27
2018-09-18T01:14:13.841Z,64.25
2018-09-18T01:16:42.075Z,64.57
2018-09-18T01:19:10.289Z,63.32
2018-09-18T01:21:38.550Z,63.15
2018-09-18T01:24:06.773Z,63.64
2018-09-18T01:26:35.002Z,63.93
2018-09-18T01:29:03.235Z,63.40
2018-09-18T01:31:31.457Z,63.87
2018-09-18T01:33:59.673Z,63.61
2018-09-18T01:36:27.925Z,63.40
2018-09-18T01:38:56.160Z,63.20
2018-09-18T01:41:24.389Z,62.18
2018-09-18T01:43:52.662Z,62.01
2018-09-18T01:46:20.834Z,62.94
2018-09-18T01:48:49.062Z,63.10
2018-09-18T01:51:17.264Z,62.67
2018-09-18T01:53:45.485Z,63.65
2018-09-18T01:56:13.713Z,62.74
2018-09-18T01:58:41.934Z,62.89
2018-09-18T02:01:10.158Z,63.41
2018-09-18T02:03:38.406Z,63.56
2018-09-18T02:06:06.708Z,63.36
2018-09-18T02:08:34.905Z,63.75
2018-09-18T02:11:03.159Z,63.63
2018-09-18T02:13:31.357Z,63.08
2018-09-18T02:15:59.593Z,63.93
2018-09-18T02:18:27.814Z,63.81
2018-09-18T02:20:56.030Z,63.64
2018-09-18T02:23:24.248Z,64.20
2018-09-18T02:25:52.474Z,64.58
2018-09-18T02:28:20.685Z,65.08
2018-09-18T02:30:48.914Z,64.34
2018-09-18T02:33:17.143Z,64.70
2018-09-18T02:35:45.349Z,64.43
2018-09-18T02:38:13.592Z,64.38
2018-09-18T02:40:41.814Z,63.51
2018-09-18T02:43:10.045Z,64.00
2018-09-18T02:45:38.470Z,63.89
2018-09-18T02:48:06.692Z,63.63
2018-09-18T02:50:34.902Z,64.10
2018-09-18T02:53:03.138Z,64.22
2018-09-18T02:55:31.350Z,63.47
2018-09-18T02:57:59.574Z,64.15
2018-09-18T03:00:27.798Z,63.88
2018-09-18T03:02:56.012Z,64.14
2018-09-18T03:05:24.259Z,65.22
2018-09-18T03:07:52.468Z,64.67
2018-09-18T03:10:20.697Z,64.69
2018-09-18T03:12:48.920Z,63.75
2018-09-18T03:15:17.164Z,64.54
2018-09-18T03:17:45.380Z,64.22
2018-09-18T03:20:13.634Z,63.89
2018-09-18T03:22:41.831Z,64.00
2018-09-18T03:25:10.086Z,64.29
2018-09-18T03:27:38.304Z,63.74
2018-09-18T03:30:06.554Z,63.73
2018-09-18T03:32:34.766Z,64.12
2018-09-18T03:35:02.977Z,64.17
2018-09-18T03:37:31.227Z,64.17
2018-09-18T03:39:59.462Z,63.31
2018-09-18T03:42:27.702Z,63.62
2018-09-18T03:44:55.918Z,64.30
2018-09-18T03:47:24.139Z,64.35
2018-09-18T03:49:53.301Z,64.04
2018-09-18T03:52:21.529Z,65.32
2018-09-18T03:54:49.813Z,65.08
2018-09-18T03:57:18.027Z,64.79
2018-09-18T03:59:46.276Z,64.94
2018-09-18T04:02:14.498Z,65.02
2018-09-18T04:04:43.798Z,65.44
2018-09-18T04:07:12.023Z,64.96
2018-09-18T04:09:40.246Z,65.24
2018-09-18T04:12:08.450Z,64.48
2018-09-18T04:14:36.673Z,64.43
2018-09-18T04:17:04.997Z,65.42
2018-09-18T04:19:33.241Z,64.07
2018-09-18T04:22:01.466Z,64.02
2018-09-18T04:24:30.698Z,63.22
2018-09-18T04:26:58.920Z,63.92
2018-09-18T04:29:27.125Z,63.46
2018-09-18T04:31:55.358Z,64.12
2018-09-18T04:34:23.582Z,64.05
2018-09-18T04:36:52.878Z,63.88
2018-09-18T04:39:21.158Z,64.05
2018-09-18T04:41:50.456Z,64.73
2018-09-18T04:44:18.673Z,64.98
2018-09-18T04:46:46.900Z,65.15
2018-09-18T04:49:15.145Z,65.80
2018-09-18T04:51:43.446Z,65.93
2018-09-18T04:54:11.674Z,66.18
2018-09-18T04:56:39.890Z,65.93
2018-09-18T04:59:08.179Z,66.07
2018-09-18T05:01:36.481Z,66.93
2018-09-18T05:04:04.721Z,66.19
2018-09-18T05:06:33.029Z,66.38
2018-09-18T05:09:01.249Z,65.67
2018-09-18T05:11:29.549Z,66.01
2018-09-18T05:13:57.927Z,66.68
2018-09-18T05:16:26.081Z,66.02
2018-09-18T05:18:54.445Z,66.48
2018-09-18T05:21:23.697Z,65.90
2018-09-18T05:23:51.935Z,66.18
2018-09-18T05:26:20.146Z,65.52
2018-09-18T05:28:49.389Z,65.70
2018-09-18T05:31:17.686Z,66.97
2018-09-18T05:33:47.068Z,66.71
2018-09-18T05:36:15.282Z,66.14
2018-09-18T05:38:43.582Z,65.69
2018-09-18T05:41:11.860Z,65.79
2018-09-18T05:43:41.193Z,65.66
2018-09-18T05:46:10.494Z,65.43
2018-09-18T05:48:38.790Z,65.84
2018-09-18T05:51:07.105Z,64.94
2018-09-18T05:53:35.326Z,65.39
2018-09-18T05:56:04.574Z,64.48
2018-09-18T05:58:32.798Z,64.25
2018-09-18T06:01:01.040Z,64.05
2018-09-18T06:03:29.332Z,64.75
2018-09-18T06:05:57.559Z,63.82
2018-09-18T06:08:25.777Z,63.30
2018-09-18T06:10:54.087Z,63.83
2018-09-18T06:13:22.319Z,62.26
2018-09-18T06:15:50.565Z,62.54
2018-09-18T06:18:18.884Z,62.64
2018-09-18T06:20:47.089Z,62.16
2018-09-18T06:23:15.344Z,61.83
2018-09-18T06:25:43.575Z,61.33
2018-09-18T06:28:11.791Z,61.60
2018-09-18T06:30:40.002Z,61.12
2018-09-18T06:33:08.446Z,60.99
2018-09-18T06:35:36.681Z,59.96
2018-09-18T06:38:04.990Z,59.22
2018-09-18T06:40:33.216Z,58.77
2018-09-18T06:43:01.434Z,58.76
2018-09-18T06:45:29.666Z,56.88
2018-09-18T06:47:57.913Z,56.74
2018-09-18T06:50:26.119Z,56.73
2018-09-18T06:52:54.348Z,55.57
2018-09-18T06:55:22.581Z,55.01
2018-09-18T06:57:50.812Z,54.46
2018-09-18T07:00:19.947Z,54.68
2018-09-18T07:02:49.214Z,52.93
2018-09-18T07:05:17.442Z,52.65
2018-09-18T07:07:45.658Z,52.46
2018-09-18T07:10:13.897Z,51.86
2018-09-18T07:12:42.142Z,50.20
2018-09-18T07:15:10.367Z,49.74
2018-09-18T07:17:38.582Z,49.11
2018-09-18T07:20:07.062Z,49.09
2018-09-18T07:22:35.278Z,48.85
2018-09-18T07:25:03.503Z,48.52
2018-09-18T07:27:31.773Z,47.81
2018-09-18T07:30:00.002Z,47.30
2018-09-18T07:32:28.201Z,47.62
2018-09-18T07:34:56.423Z,46.53
2018-09-18T07:37:24.621Z,46.71
2018-09-18T07:39:52.855Z,45.97
2018-09-18T07:42:21.065Z,45.49
2018-09-18T07:44:49.289Z,45.16
2018-09-18T07:47:17.501Z,44.79
2018-09-18T07:49:45.734Z,45.04
2018-09-18T07:52:14.003Z,45.18
2018-09-18T07:54:42.165Z,43.34
2018-09-18T07:57:10.378Z,43.44
2018-09-18T07:59:38.606Z,42.40
2018-09-18T08:02:06.894Z,41.45
2018-09-18T08:04:35.114Z,41.65
2018-09-18T08:07:03.941Z,40.84
2018-09-18T08:09:32.183Z,40.92
2018-09-18T08:12:00.407Z,41.07
2018-09-18T08:14:28.618Z,41.19
2018-09-18T08:16:56.855Z,39.96
2018-09-18T08:19:25.180Z,39.64
2018-09-18T08:21:53.304Z,39.08
2018-09-18T08:24:21.513Z,39.73
2018-09-18T08:26:49.762Z,39.90
2018-09-18T08:29:17.961Z,38.89
2018-09-18T08:31:48.210Z,38.58
2018-09-18T08:34:16.441Z,38.91
2018-09-18T08:36:44.650Z,38.07
2018-09-18T08:39:12.878Z,38.74
2018-09-18T08:41:41.140Z,38.58
2018-09-18T08:44:09.369Z,39.11
2018-09-18T08:46:37.585Z,39.36
2018-09-18T08:49:05.860Z,39.10
2018-09-18T08:51:35.224Z,38.58
2018-09-18T08:54:03.450Z,39.05
2018-09-18T08:56:31.726Z,38.67
2018-09-18T08:58:59.980Z,37.62
2018-09-18T09:01:28.215Z,37.69
2018-09-18T09:03:56.524Z,38.37
2018-09-18T09:06:24.720Z,38.57
2018-09-18T09:08:53.133Z,38.07
2018-09-18T09:11:21.179Z,37.99
2018-09-18T09:13:49.407Z,38.73
2018-09-18T09:16:17.646Z,37.79
2018-09-18T09:18:45.873Z,38.95
2018-09-18T09:21:14.198Z,38.60
2018-09-18T09:23:42.332Z,38.22
2018-09-18T09:26:10.574Z,37.82
2018-09-18T09:28:38.829Z,37.65
2018-09-18T09:31:07.097Z,38.51
2018-09-18T09:33:35.354Z,38.20
2018-09-18T09:36:03.565Z,37.97
2018-09-18T09:38:31.803Z,37.40
2018-09-18T09:41:01.108Z,38.51
2018-09-18T09:43:29.345Z,37.52
2018-09-18T09:45:57.590Z,38.36
2018-09-18T09:48:25.821Z,38.24
2018-09-18T09:50:54.093Z,37.39
2018-09-18T09:53:22.333Z,37.25
2018-09-18T09:55:50.566Z,38.21
2018-09-18T09:58:18.798Z,37.18
2018-09-18T10:01:53.821Z,37.80
2018-09-18T10:04:22.134Z,37.68
2018-09-18T10:06:50.361Z,37.25
2018-09-18T10:09:18.576Z,36.79
2018-09-18T10:11:46.807Z,37.36
2018-09-18T10:14:15.072Z,36.54
2018-09-18T10:16:43.277Z,37.50
2018-09-18T10:19:12.532Z,36.70
2018-09-18T10:21:40.787Z,36.75
2018-09-18T10:24:09.787Z,36.59
2018-09-18T10:26:38.096Z,36.66
2018-09-18T10:29:06.412Z,36.48
2018-09-18T10:31:34.597Z,36.64
2018-09-18T10:34:02.846Z,36.06
2018-09-18T10:36:31.058Z,36.91
2018-09-18T10:38:59.281Z,36.03
2018-09-18T10:41:27.805Z,37.00
2018-09-18T10:43:56.078Z,36.38
2018-09-18T10:46:24.722Z,36.32
2018-09-18T10:48:55.753Z,36.84
2018-09-18T10:51:23.991Z,35.66
2018-09-18T10:53:52.226Z,36.78
2018-09-18T10:56:20.456Z,36.35
2018-09-18T10:58:48.678Z,36.73
2018-09-18T11:01:17.016Z,36.27
2018-09-18T11:03:45.223Z,35.38
2018-09-18T11:06:13.921Z,35.76
2018-09-18T11:08:42.127Z,36.17
2018-09-18T11:11:10.382Z,36.49
2018-09-18T11:13:38.602Z,35.67
2018-09-18T11:16:07.265Z,36.67
2018-09-18T11:18:35.344Z,36.53
2018-09-18T11:21:03.682Z,36.23
2018-09-18T11:23:31.958Z,36.77
2018-09-18T11:26:00.142Z,36.03
2018-09-18T11:28:28.377Z,35.94
2018-09-18T11:30:56.608Z,35.88
2018-09-18T11:33:24.880Z,36.95
2018-09-18T11:35:53.088Z,37.08
2018-09-18T11:38:21.303Z,37.32
2018-09-18T11:40:49.566Z,36.16
2018-09-18T11:43:17.784Z,36.63
2018-09-18T11:45:46.172Z,37.72
2018-09-18T11:48:14.262Z,38.48
2018-09-18T11:50:43.546Z,35.89
2018-09-18T11:53:11.770Z,34.46
2018-09-18T11:55:41.141Z,34.36
2018-09-18T11:58:12.823Z,34.76
2018-09-18T12:00:43.519Z,35.04
2018-09-18T12:03:12.798Z,34.39
2018-09-18T12:05:43.137Z,32.05
2018-09-18T12:08:13.725Z,33.94
2018-09-18T12:10:43.903Z,33.45
2018-09-18T12:13:14.103Z,31.83
2018-09-18T12:15:43.396Z,32.45
2018-09-18T12:18:12.691Z,31.87
2018-09-18T12:20:41.846Z,32.54
2018-09-18T12:23:10.934Z,32.58
2018-09-18T12:25:40.057Z,31.88
2018-09-18T12:28:09.188Z,32.03
2018-09-18T12:30:38.414Z,31.49
2018-09-18T12:33:09.053Z,31.39
2018-09-18T12:35:39.202Z,30.74
2018-09-18T12:38:09.158Z,30.18
2018-09-18T12:40:38.452Z,30.06
2018-09-18T12:43:07.737Z,29.63
2018-09-18T12:45:36.876Z,29.08
2018-09-18T12:48:06.251Z,30.23
2018-09-18T12:50:35.684Z,30.01
2018-09-18T12:53:04.687Z,30.25
2018-09-18T12:55:34.898Z,29.13
2018-09-18T12:58:06.781Z,29.26
2018-09-18T13:00:36.801Z,28.44
2018-09-18T13:03:05.614Z,28.92
2018-09-18T13:05:36.071Z,28.80
2018-09-18T13:08:04.341Z,27.99
2018-09-18T13:10:32.606Z,27.42
2018-09-18T13:13:00.827Z,27.24
2018-09-18T13:15:29.085Z,27.42
2018-09-18T13:17:57.334Z,26.24
2018-09-18T13:20:25.601Z,26.60
2018-09-18T13:22:53.894Z,27.17
2018-09-18T13:25:22.151Z,26.42
2018-09-18T13:27:50.502Z,25.92
2018-09-18T13:30:19.816Z,26.45
2018-09-18T13:32:48.070Z,25.55
2018-09-18T13:35:16.273Z,26.45
2018-09-18T13:37:46.548Z,26.99
2018-09-18T13:40:14.819Z,25.72
2018-09-18T13:42:43.037Z,25.97
2018-09-18T13:45:11.266Z,27.11
2018-09-18T13:47:39.501Z,26.78
2018-09-18T13:50:08.189Z,27.55
2018-09-18T13:52:36.435Z,27.62
2018-09-18T13:55:04.690Z,27.24
2018-09-18T13:57:32.938Z,27.91
2018-09-18T14:00:01.277Z,28.07
2018-09-18T14:02:29.533Z,28.14
2018-09-18T14:04:58.813Z,28.69
2018-09-18T14:07:26.958Z,29.59
2018-09-18T14:09:55.210Z,28.95
2018-09-18T14:12:23.429Z,29.28
2018-09-18T14:14:51.700Z,29.58
2018-09-18T14:17:19.902Z,30.50
2018-09-18T14:19:48.133Z,29.34
2018-09-18T14:22:16.343Z,30.60
2018-09-18T14:24:44.586Z,29.72
2018-09-18T14:27:12.797Z,28.79
2018-09-18T14:29:41.104Z,28.98
2018-09-18T14:32:10.417Z,27.60
2018-09-18T14:34:38.753Z,28.29
2018-09-18T14:37:07.074Z,27.26
2018-09-18T14:39:35.301Z,28.50
2018-09-18T14:42:03.542Z,28.19
2018-09-18T14:44:31.793Z,28.60
2018-09-18T14:47:00.093Z,29.59
2018-09-18T14:49:28.228Z,28.96
2018-09-18T14:51:56.570Z,29.93
2018-09-18T14:54:24.783Z,28.50
2018-09-18T14:56:54.079Z,28.89
2018-09-18T14:59:22.402Z,28.28
2018-09-18T15:01:50.714Z,28.15
2018-09-18T15:04:18.961Z,27.19
2018-09-18T15:06:47.281Z,26.81
2018-09-18T15:09:15.466Z,26.89
2018-09-18T15:11:43.678Z,26.13
2018-09-18T15:14:11.898Z,26.38
2018-09-18T15:16:40.143Z,26.36
2018-09-18T15:19:08.914Z,26.47
2018-09-18T15:21:37.140Z,26.85
2018-09-18T15:24:05.385Z,26.94
2018-09-18T15:26:33.602Z,27.87
2018-09-18T15:29:01.837Z,27.32
2018-09-18T15:31:30.109Z,26.78
2018-09-18T15:33:58.393Z,27.30
2018-09-18T15:36:27.606Z,27.66
2018-09-18T15:38:55.848Z,27.27
2018-09-18T15:41:24.083Z,26.84
2018-09-18T15:43:52.546Z,26.49
2018-09-18T15:46:20.774Z,26.23
2018-09-18T15:48:49.051Z,27.01
2018-09-18T15:51:17.384Z,26.42
2018-09-18T15:53:45.610Z,27.25
2018-09-18T15:56:13.831Z,25.94
2018-09-18T15:58:42.094Z,25.83
2018-09-18T16:01:10.361Z,26.75
2018-09-18T16:03:38.589Z,26.10
2018-09-18T16:06:06.809Z,25.58
2018-09-18T16:08:35.067Z,26.60
2018-09-18T16:11:03.339Z,26.00
2018-09-18T16:13:31.579Z,25.92
2018-09-18T16:16:00.202Z,26.54
2018-09-18T16:18:29.192Z,25.67
2018-09-18T16:20:57.713Z,25.98
2018-09-18T16:23:25.949Z,26.32
2018-09-18T16:25:54.182Z,26.66
2018-09-18T16:28:22.399Z,25.80
2018-09-18T16:30:51.840Z,27.45
2018-09-18T16:33:19.935Z,27.10
2018-09-18T16:35:48.201Z,27.03
2018-09-18T16:38:16.438Z,27.35
2018-09-18T16:40:44.736Z,27.13
2018-09-18T16:43:12.914Z,27.08
2018-09-18T16:45:41.162Z,27.22
2018-09-18T16:48:09.493Z,26.37
2018-09-18T16:50:37.809Z,28.02
2018-09-18T16:53:06.084Z,27.21
2018-09-18T16:55:34.289Z,27.74
2018-09-18T16:58:02.502Z,28.58
2018-09-18T17:00:30.739Z,27.25
2018-09-18T17:02:58.929Z,27.83
2018-09-18T17:05:27.189Z,27.52
2018-09-18T17:07:57.426Z,28.61
2018-09-18T17:10:25.759Z,27.67
2018-09-18T17:12:53.940Z,28.21
2018-09-18T17:15:22.179Z,28.10
2018-09-18T17:17:50.398Z,28.41
2018-09-18T17:20:18.621Z,28.44
2018-09-18T17:22:46.843Z,28.17
2018-09-18T17:25:15.075Z,28.28
2018-09-18T17:27:43.284Z,28.97
2018-09-18T17:30:11.562Z,28.85
2018-09-18T17:32:39.805Z,28.99
2018-09-18T17:35:08.315Z,29.67
2018-09-18T17:37:36.793Z,29.18
2018-09-18T17:40:05.155Z,30.45
2018-09-18T17:42:33.363Z,29.64
2018-09-18T17:45:01.974Z,30.97
2018-09-18T17:47:30.235Z,30.51
2018-09-18T17:49:58.411Z,30.52
2018-09-18T17:52:26.654Z,31.89
2018-09-18T17:54:54.886Z,32.65
2018-09-18T17:57:23.095Z,32.17
2018-09-18T17:59:51.318Z,33.26
2018-09-18T18:02:19.837Z,33.21
2018-09-18T18:04:48.055Z,33.88
2018-09-18T18:07:16.296Z,34.32
2018-09-18T18:09:44.519Z,33.57
2018-09-18T18:12:12.751Z,34.61
2018-09-18T18:14:41.031Z,34.55
2018-09-18T18:17:09.272Z,34.62
2018-09-18T18:19:37.482Z,35.14
2018-09-18T18:22:05.970Z,35.17
2018-09-18T18:24:34.177Z,36.31
2018-09-18T18:27:02.406Z,36.72
2018-09-18T18:29:30.655Z,35.99
2018-09-18T18:31:58.831Z,36.64
2018-09-18T18:34:27.037Z,36.09
2018-09-18T18:36:55.270Z,35.83
2018-09-18T18:39:23.505Z,36.84
2018-09-18T18:41:51.755Z,37.00
2018-09-18T18:44:20.026Z,38.22
2018-09-18T18:46:48.240Z,38.11
2018-09-18T18:49:16.461Z,38.39
2018-09-18T18:51:44.675Z,39.27
2018-09-18T18:54:12.887Z,38.33
2018-09-18T18:56:41.198Z,38.30
2018-09-18T18:59:09.362Z,38.28
2018-09-18T19:01:37.614Z,38.43
2018-09-18T19:04:05.865Z,39.70
2018-09-18T19:06:34.312Z,39.63
2018-09-18T19:09:02.514Z,39.39
2018-09-18T19:11:30.798Z,39.47
2018-09-18T19:13:59.005Z,40.75
2018-09-18T19:16:27.280Z,39.11
2018-09-18T19:18:55.563Z,39.61
2018-09-18T19:21:29.296Z,39.11
2018-09-18T19:23:57.562Z,39.20
2018-09-18T19:26:25.786Z,40.33
2018-09-18T19:28:54.696Z,39.25
2018-09-18T19:31:22.901Z,40.31
2018-09-18T19:33:51.280Z,39.79
2018-09-18T19:36:19.507Z,40.23
2018-09-18T19:38:47.721Z,40.66
2018-09-18T19:41:15.952Z,40.93
2018-09-18T19:43:44.162Z,41.06
2018-09-18T19:46:12.727Z,40.52
2018-09-18T19:48:41.213Z,40.91
2018-09-18T19:51:09.471Z,41.35
2018-09-18T19:53:37.751Z,41.83
2018-09-18T19:56:06.169Z,41.16
2018-09-18T19:58:35.431Z,42.24
2018-09-18T20:01:03.740Z,41.59
2018-09-18T20:03:31.962Z,42.29
2018-09-18T20:06:00.179Z,41.92
2018-09-18T20:08:28.435Z,42.96
2018-09-18T20:10:56.658Z,42.38
2018-09-18T20:13:24.906Z,45.11
2018-09-18T20:15:53.257Z,45.75
2018-09-18T20:18:21.606Z,44.39
2018-09-18T20:20:49.925Z,44.14
2018-09-18T20:23:18.113Z,44.82
2018-09-18T20:25:47.648Z,43.57
2018-09-18T20:28:15.880Z,43.78
2018-09-18T20:30:44.126Z,44.31
2018-09-18T20:33:13.422Z,45.59
2018-09-18T20:35:41.709Z,44.73
2018-09-18T20:38:09.903Z,45.21
2018-09-18T20:40:38.221Z,46.48
2018-09-18T20:43:06.701Z,45.76
2018-09-18T20:45:34.938Z,46.83
2018-09-18T20:48:06.625Z,47.22
2018-09-18T20:50:34.927Z,46.66
2018-09-18T20:53:03.074Z,47.95
2018-09-18T20:55:31.313Z,47.07
2018-09-18T20:58:00.630Z,47.77
2018-09-18T21:00:28.871Z,47.83
2018-09-18T21:02:57.103Z,49.98
2018-09-18T21:05:25.348Z,48.23
2018-09-18T21:07:53.592Z,48.63
2018-09-18T21:10:21.828Z,48.61
2018-09-18T21:12:50.064Z,49.17
2018-09-18T21:15:18.286Z,50.70
2018-09-18T21:17:46.545Z,49.86
2018-09-18T21:20:14.775Z,48.96
2018-09-18T21:22:42.986Z,51.23
2018-09-18T21:25:15.010Z,49.93
2018-09-18T21:27:44.458Z,50.77
2018-09-18T21:30:13.141Z,50.22
2018-09-18T21:32:41.387Z,50.60
2018-09-18T21:35:09.921Z,51.40
2018-09-18T21:37:38.303Z,50.32
2018-09-18T21:40:06.556Z,50.83
2018-09-18T21:42:34.812Z,51.15
2018-09-18T21:45:03.381Z,51.06
2018-09-18T21:47:31.657Z,53.05
2018-09-18T21:49:59.884Z,52.40
2018-09-18T21:52:28.094Z,51.72
2018-09-18T21:54:56.462Z,52.08
2018-09-18T21:57:24.669Z,53.00
2018-09-18T21:59:52.888Z,52.51
2018-09-18T22:02:21.158Z,53.28
2018-09-18T22:04:49.385Z,53.15
2018-09-18T22:07:17.601Z,53.17
2018-09-18T22:09:45.815Z,53.27
2018-09-18T22:12:14.040Z,53.61
2018-09-18T22:14:42.259Z,54.11
2018-09-18T22:17:10.503Z,54.69
2018-09-18T22:19:38.710Z,53.70
2018-09-18T22:22:06.992Z,54.34
2018-09-18T22:24:35.236Z,55.22
2018-09-18T22:27:03.486Z,55.42
2018-09-18T22:29:31.694Z,55.83
2018-09-18T22:31:59.917Z,55.23
2018-09-18T22:34:28.239Z,56.94
2018-09-18T22:36:56.430Z,55.44
2018-09-18T22:39:24.675Z,56.03
2018-09-18T22:41:52.853Z,56.42
2018-09-18T22:44:21.070Z,57.16
2018-09-18T22:46:49.290Z,55.94
2018-09-18T22:49:17.494Z,55.81
2018-09-18T22:51:45.719Z,55.78
2018-09-18T22:54:13.925Z,57.26
2018-09-18T22:56:42.137Z,55.44
2018-09-18T22:59:10.345Z,56.15
2018-09-18T23:01:38.584Z,56.99
2018-09-18T23:04:06.827Z,56.78
2018-09-18T23:06:35.053Z,56.65
2018-09-18T23:09:03.324Z,57.12
2018-09-18T23:11:31.527Z,56.87
2018-09-18T23:13:59.745Z,57.29
2018-09-18T23:16:27.973Z,57.11
2018-09-18T23:18:56.259Z,58.13
2018-09-18T23:21:24.435Z,56.77
2018-09-18T23:23:52.655Z,58.33
2018-09-18T23:26:20.870Z,56.95
2018-09-18T23:28:49.083Z,57.57
2018-09-18T23:31:17.303Z,56.86
2018-09-18T23:33:45.745Z,56.72
2018-09-18T23:36:13.962Z,57.86
2018-09-18T23:38:42.217Z,57.52
2018-09-18T23:41:10.417Z,57.43
2018-09-18T23:43:38.635Z,57.47
2018-09-18T23:46:06.902Z,57.89
2018-09-18T23:48:35.187Z,58.01
2018-09-18T23:51:03.362Z,57.77
2018-09-18T23:53:31.603Z,58.85
2018-09-18T23:55:59.814Z,58.25
2018-09-18T23:58:28.026Z,57.84
